• Join FlightAware (Why Join?)
  • Login
  • US Flag 
12:15AM EST


 

Airport Tracker/Info


-or-


 

Live Flight TrackerFlight Track Log ✈ N129SA ✈ 17-May-2013 ✈ KSGF - M01

Flight Track Log - Related Links

Times and Time Zones

All times are in EDT time to prevent confusion due to time zone crossing. See the N129SA flight status page for this flight to view local times or setup timezone preferences in your user account.

Time Position Orientation Groundspeed Altitude Reporting Facility
EDT Latitude Longitude Course Direction KTS MPH feet Rate Location/Type
06:55PM 37.1016 -93.1426 126° Southeast  Level Estimated
06:56PM 37.0775 -93.1017 126° Southeast  Level Estimated
06:57PM 37.0534 -93.0608 126° Southeast  Level Estimated
06:58PM 37.0293 -93.0199 126° Southeast  Level Estimated
06:59PM 37.0052 -92.9791 126° Southeast  Level Estimated
07:00PM 36.9811 -92.9383 126° Southeast  Level Estimated
07:01PM 36.9569 -92.8975 127° Southeast  Level Estimated
07:02PM 36.9328 -92.8567 127° Southeast  Level Estimated
07:03PM 36.9086 -92.8160 127° Southeast  Level Estimated
07:04PM 36.8844 -92.7753 127° Southeast  Level Estimated
07:05PM 36.8602 -92.7346 127° Southeast  Level Estimated
07:06PM 36.8360 -92.6939 127° Southeast  Level Estimated
07:07PM 36.8118 -92.6533 127° Southeast  Level Estimated
07:08PM 36.7876 -92.6127 127° Southeast  Level Estimated
07:09PM 36.7633 -92.5721 127° Southeast  Level Estimated
07:10PM 36.7391 -92.5316 127° Southeast  Level Estimated
07:11PM 36.7148 -92.4911 127° Southeast  Level Estimated
07:12PM 36.6905 -92.4505 127° Southeast  Level Estimated
07:13PM 36.6662 -92.4101 127° Southeast  Level Estimated
07:14PM 36.6418 -92.3696 127° Southeast  Level Estimated
07:15PM 36.6175 -92.3292 127° Southeast  Level Estimated
07:16PM 36.5932 -92.2888 127° Southeast  Level Estimated
07:17PM 36.5688 -92.2484 127° Southeast  Level Estimated
07:18PM 36.5444 -92.2081 127° Southeast  Level Estimated
07:19PM 36.5201 -92.1677 127° Southeast  Level Estimated
07:20PM 36.4957 -92.1274 127° Southeast  Level Estimated
07:21PM 36.4712 -92.0872 127° Southeast  Level Estimated
07:22PM 36.4468 -92.0469 127° Southeast  Level Estimated
07:23PM 36.4224 -92.0067 127° Southeast  Level Estimated
07:24PM 36.3979 -91.9665 127° Southeast  Level Estimated
07:25PM 36.3735 -91.9263 127° Southeast  Level Estimated
07:26PM 36.3490 -91.8862 127° Southeast  Level Estimated
07:27PM 36.3245 -91.8461 127° Southeast  Level Estimated
07:28PM 36.3000 -91.8060 127° Southeast  Level Estimated
07:29PM 36.2754 -91.7659 127° Southeast  Level Estimated
07:30PM 36.2509 -91.7258 127° Southeast  Level Estimated
07:31PM 36.2263 -91.6858 127° Southeast  Level Estimated
07:32PM 36.2018 -91.6458 127° Southeast  Level Estimated
07:33PM 36.1772 -91.6059 127° Southeast  Level Estimated
07:34PM 36.1526 -91.5659 127° Southeast  Level Estimated
07:35PM 36.1280 -91.5260 127° Southeast  Level Estimated
07:36PM 36.1034 -91.4861 127° Southeast  Level Estimated
07:37PM 36.0788 -91.4462 127° Southeast  Level Estimated
07:38PM 36.0541 -91.4064 127° Southeast  Level Estimated
07:39PM 36.0295 -91.3665 127° Southeast  Level Estimated
07:40PM 36.0048 -91.3267 127° Southeast  Level Estimated
07:41PM 35.9801 -91.2870 127° Southeast  Level Estimated
07:42PM 35.9554 -91.2472 128° Southeast  Level Estimated
07:43PM 35.9307 -91.2075 128° Southeast  Level Estimated
07:44PM 35.9060 -91.1678 128° Southeast  Level Estimated
07:45PM 35.8813 -91.1281 128° Southeast  Level Estimated
07:46PM 35.8565 -91.0885 128° Southeast  Level Estimated
07:47PM 35.8318 -91.0489 128° Southeast  Level Estimated
07:48PM 35.8070 -91.0093 128° Southeast  Level Estimated
07:49PM 35.7822 -90.9697 128° Southeast  Level Estimated
07:50PM 35.7574 -90.9301 128° Southeast  Level Estimated
07:51PM 35.7326 -90.8906 128° Southeast  Level Estimated
07:52PM 35.7078 -90.8511 128° Southeast  Level Estimated
07:53PM 35.6829 -90.8117 128° Southeast  Level Estimated
07:54PM 35.6581 -90.7722 128° Southeast  Level Estimated
07:55PM 35.6332 -90.7328 128° Southeast  Level Estimated
07:56PM 35.6084 -90.6934 128° Southeast  Level Estimated
07:57PM 35.5835 -90.6540 128° Southeast  Level Estimated
07:58PM 35.5586 -90.6146 128° Southeast  Level Estimated
07:59PM 35.5337 -90.5753 128° Southeast  Level Estimated
08:00PM 35.5087 -90.5360 128° Southeast  Level Estimated
08:01PM 35.4838 -90.4967 128° Southeast  Level Estimated
08:02PM 35.4588 -90.4575 128° Southeast  Level Estimated
08:03PM 35.4339 -90.4183 128° Southeast  Level Estimated
08:04PM 35.4089 -90.3791 128° Southeast  Level Estimated
08:05PM 35.3839 -90.3399 128° Southeast  Level Estimated
08:06PM 35.3589 -90.3007 128° Southeast  Level Estimated
08:07PM 35.3339 -90.2616 128° Southeast  Level Estimated
08:08PM 35.3088 -90.2225 128° Southeast  Level Estimated
08:09PM 35.2838 -90.1834 128° Southeast  Level Estimated
08:10PM 35.2588 -90.1443 128° Southeast  Level Estimated
08:11PM 35.2337 -90.1053 128° Southeast  Level Estimated
08:12PM 35.2086 -90.0663 128° Southeast  Level Estimated
08:12PM 35.4333 -90.5167 338° Northwest 154 177 3,000  Level KMEM
08:12PM 35.4167 -90.4833 122° Southeast 153 176 2,800 -120 Descending KMEM
08:13PM 35.2007 -90.0540 128° Southeast  Level Estimated
08:13PM 35.4000 -90.4500 122° Southeast 139 160 2,800  Level KMEM
08:14PM 35.2007 -90.0540 338° Northwest  Level Estimated
08:14PM 35.3667 -90.4000 129° Southeast 140 161 2,700  Level KMEM
08:15PM 35.2007 -90.0540 338° Northwest  Level Estimated
08:15PM 35.3500 -90.3667 122° Southeast 138 159 2,800  Level KMEM
08:16PM 35.2007 -90.0540 338° Northwest  Level Estimated
08:16PM 35.3333 -90.3167 112° Southeast 139 160 2,500  Level KMEM
08:17PM 35.2007 -90.0540 338° Northwest  Level Estimated
08:17PM 35.3167 -90.2833 121° Southeast 142 163 2,600  Level KMEM
08:18PM 35.3000 -90.2333 112° Southeast 134 154 2,700 -120 Climbing KMEM
08:19PM 35.2833 -90.2000 121° Southeast 139 160 2,400 -240 Descending KMEM
08:20PM 35.2667 -90.1500 112° Southeast 132 152 2,300 -120 Descending KMEM
08:22PM 35.2310 -90.1120 121° Southeast  Level FlightAware Approximate